Bar Harbor, ME

3:20 PM EDT on September 03, 2015 (GMT -0400)
19 Strawberry Hill Road | | Change Station
CLOSE
Current Station
Personal Weather Station
Location: Bar Harbor, ME
Elevation: 173 ft
Nearby Weather Stations

Elev 173 ft 44.37 °N, 68.20 °W | Updated 14 seconds ago

Mostly Cloudy
Mostly Cloudy
84.5 °F
Feels Like 86 °F
N
7.0
Wind Variable Wind from North
Gusts 9.0 mph

Today
High -- | Low -- °F
--% Chance of Precip.
Yesterday
High -- | Low -- °F
Precip. -- in
5:57 AM 7:06 PM
Waning Gibbous, 67% visible
Pressure 29.82 in
Visibility 10.0 miles
Clouds Few 5000 ft
Scattered Clouds 7000 ft
Heat Index 86 °F
Dew Point 64 °F
Humidity 50%
Rainfall 0.00 in
Snow Depth Not available.
UV 4 out of 12
Pollen 7.30 out of 12
Air Quality Not available.
Flu Activity Not available.
METAR KBHB 031915Z 33006KT 310V030 10SM FEW050 SCT070 29/18 A2982 RMK AO1
Pressure 29.82 in
Visibility 10.0 miles
Clouds Few 5000 ft
Scattered Clouds 7000 ft
Heat Index 86 °F
Dew Point 64 °F
Humidity 50%
Rainfall 0.00 in
Snow Depth Not available.
UV 4 out of 12
Pollen 7.30 out of 12
Air Quality Not available.
Flu Activity Not available.
METAR KBHB 031915Z 33006KT 310V030 10SM FEW050 SCT070 29/18 A2982 RMK AO1

10-Day Weather Forecast

×

Almanac

Astronomy

Sep. 03, 2015 Rise Set
Actual Time
Civil Twilight
Nautical Twilight
Astronomical Twilight
Moon
Length of Visible Light
Length of Day
Tomorrow will be .
, % of the Moon is Illuminated

Today's Extremes

State Highs State Lows

Community

WunderPhotos

Upload Photos

1,852,014 photos uploaded!

WunderBlogs® & News

Nearby

Air Quality

  Air Quality AQ Index Pollutant
Not available.

Snow Depth

Station Depth Elevation

Earthquake Activity

City Distance Mag. Time & Date
Minimum magnitude displayed is 2.5.

Coastal Water Temperatures

Place Temperature

Stations

Nearby Weather Stations

Station Location Temp. Windchill Dew Point Humidity Wind Precip. Elev Updated Type